Time;durP1;ratioP1;P1;durP2;ratioP2;P2;SDS_P1;SDS_P2;PMS_P1;PMS_P2;Temp;Humidity;BMP_temperature;BMP_pressure;BME280_temperature;BME280_humidity;BME280_pressure;Samples;Min_cycle;Max_cycle;Signal;HPM_P1;HPM_P2
2023/06/07 00:00:44;;;;;;;;;;;;;;;16.31;61.14;99988.94;3143942;28;19920;-70
2023/06/07 00:02:15;;;;;;;;;;;;;;;16.30;61.48;99992.53;3146963;28;19924;-69
2023/06/07 00:03:48;;;;;;;;;;;;;;;16.26;61.47;99997.13;3147180;28;20390;-69
2023/06/07 00:05:21;;;;;;;;;;;;;;;16.25;62.03;99991.97;3147205;28;19993;-69
2023/06/07 00:07:00;;;;;;;;;;;;;;;16.22;61.78;99990.38;3146906;28;19990;-69
2023/06/07 00:08:31;;;;;;;;;;;;;;;16.22;61.90;99992.19;3147339;28;20389;-70
2023/06/07 00:10:03;;;;;;;;;;;;;;;16.20;62.22;99992.25;3144416;28;19975;-70
2023/06/07 00:11:35;;;;;;;;;;;;;;;16.20;62.12;99994.06;3139898;28;19921;-70
2023/06/07 00:13:06;;;;;;;;;;;;;;;16.19;62.47;99987.97;3143716;28;19927;-69
2023/06/07 00:14:37;;;;;;;;;;;;;;;16.18;62.78;99983.66;3147114;28;19925;-69
2023/06/07 00:16:10;;;;;;;;;;;;;;;16.15;62.95;99991.75;3146993;28;20320;-70
2023/06/07 00:17:40;;;;;;;;;;;;;;;16.12;63.48;99994.56;3147270;28;19920;-69
2023/06/07 00:19:15;;;;;;;;;;;;;;;16.10;63.33;99985.94;3146593;28;19928;-69
2023/06/07 00:20:49;;;;;;;;;;;;;;;16.09;63.65;99987.72;3147324;28;20337;-69
2023/06/07 00:22:20;;;;;;;;;;;;;;;16.07;63.58;99986.97;3146937;28;19928;-69
2023/06/07 00:23:52;;;;;;;;;;;;;;;16.06;63.73;99987.94;3147282;28;19920;-69
2023/06/07 00:25:22;;;;;;;;;;;;;;;16.06;63.69;99997.56;3144330;28;20449;-69
2023/06/07 00:26:54;;;;;;;;;;;;;;;16.04;64.38;99984.56;3123312;28;20020;-69
2023/06/07 00:28:26;;;;;;;;;;;;;;;16.02;64.52;99991.69;3133014;28;20329;-69
2023/06/07 00:29:57;;;;;;;;;;;;;;;16.03;64.37;99987.25;3144582;28;19978;-69
2023/06/07 00:31:29;;;;;;;;;;;;;;;16.02;64.59;99989.06;3144943;28;19920;-69
2023/06/07 00:32:59;;;;;;;;;;;;;;;16.02;64.69;99991.69;3147034;28;19974;-69
2023/06/07 00:34:32;;;;;;;;;;;;;;;16.01;64.73;99995.25;3146751;28;19985;-69
2023/06/07 00:36:05;;;;;;;;;;;;;;;16.01;64.74;99992.63;3144941;28;19943;-69
2023/06/07 00:37:36;;;;;;;;;;;;;;;16.00;64.71;99998.84;3144698;28;19993;-69
2023/06/07 00:39:07;;;;;;;;;;;;;;;16.00;65.04;99993.59;3146086;28;19924;-69
2023/06/07 00:40:38;;;;;;;;;;;;;;;15.99;65.14;100002.38;3137553;28;20520;-69
2023/06/07 00:42:10;;;;;;;;;;;;;;;16.00;65.12;99995.34;3144508;28;19928;-69
2023/06/07 00:43:42;;;;;;;;;;;;;;;15.97;65.46;99995.53;3135776;28;20325;-69
2023/06/07 00:45:14;;;;;;;;;;;;;;;15.95;65.87;99995.66;3144342;28;19920;-69
2023/06/07 00:46:46;;;;;;;;;;;;;;;15.93;65.81;99997.53;3134422;28;19974;-69
2023/06/07 00:48:17;;;;;;;;;;;;;;;15.92;65.88;99993.22;3137237;28;19925;-68
2023/06/07 00:49:50;;;;;;;;;;;;;;;15.91;66.33;100004.66;3146661;28;20337;-69
2023/06/07 00:51:22;;;;;;;;;;;;;;;15.90;66.34;99995.09;3146696;28;20398;-68
2023/06/07 00:52:54;;;;;;;;;;;;;;;15.88;66.71;99995.22;3146860;28;20000;-69
2023/06/07 00:54:26;;;;;;;;;;;;;;;15.87;66.63;99990.03;3142345;28;19964;-69
2023/06/07 00:55:58;;;;;;;;;;;;;;;15.86;66.56;99991.00;3143834;28;20016;-70
2023/06/07 00:57:29;;;;;;;;;;;;;;;15.85;66.75;99989.28;3144062;28;20397;-70
2023/06/07 00:59:01;;;;;;;;;;;;;;;15.85;66.70;99997.16;3142525;28;20003;-70
2023/06/07 01:00:32;;;;;;;;;;;;;;;15.84;66.72;99995.50;3146345;28;19950;-70
2023/06/07 01:02:04;;;;;;;;;;;;;;;15.80;67.32;99989.59;3146369;28;19921;-70
2023/06/07 01:03:35;;;;;;;;;;;;;;;15.80;67.50;99986.13;3146466;28;19920;-71
2023/06/07 01:05:08;;;;;;;;;;;;;;;15.78;67.24;99988.84;3146713;28;19973;-70
2023/06/07 01:06:40;;;;;;;;;;;;;;;15.80;67.09;99989.59;3145754;28;19924;-70
2023/06/07 01:08:12;;;;;;;;;;;;;;;15.80;67.05;99986.13;3146436;28;19920;-69
2023/06/07 01:09:43;;;;;;;;;;;;;;;15.81;67.09;99982.56;3142010;28;19931;-70
2023/06/07 01:11:15;;;;;;;;;;;;;;;15.84;67.21;99982.38;3146459;28;19944;-70
2023/06/07 01:12:49;;;;;;;;;;;;;;;15.83;66.99;99980.69;3142998;28;19921;-70
2023/06/07 01:14:21;;;;;;;;;;;;;;;15.85;67.30;99984.03;3146525;28;19928;-70
2023/06/07 01:15:52;;;;;;;;;;;;;;;15.85;67.38;99984.03;3146428;28;19932;-69
2023/06/07 01:17:26;;;;;;;;;;;;;;;15.83;67.70;99984.16;3146990;28;19920;-70
2023/06/07 01:18:58;;;;;;;;;;;;;;;15.83;67.64;99981.53;3146374;28;19925;-69
2023/06/07 01:20:31;;;;;;;;;;;;;;;15.83;67.77;99983.31;3146141;28;19920;-70
2023/06/07 01:22:05;;;;;;;;;;;;;;;15.82;67.84;99981.63;3145969;28;19924;-69
2023/06/07 01:23:38;;;;;;;;;;;;;;;15.80;68.38;99978.25;3144737;28;20313;-71
2023/06/07 01:25:09;;;;;;;;;;;;;;;15.79;68.69;99979.19;3143633;28;19920;-69
2023/06/07 01:26:41;;;;;;;;;;;;;;;15.79;68.52;99979.19;3145650;28;19924;-69
2023/06/07 01:28:12;;;;;;;;;;;;;;;15.78;68.64;99982.75;3137697;28;19947;-70
2023/06/07 01:29:44;;;;;;;;;;;;;;;15.78;68.74;99983.59;3141805;28;19926;-71
2023/06/07 01:31:16;;;;;;;;;;;;;;;15.80;68.72;99984.34;3143266;28;20297;-70
2023/06/07 01:32:49;;;;;;;;;;;;;;;15.80;68.87;99986.13;3139542;28;19931;-70
2023/06/07 01:34:21;;;;;;;;;;;;;;;15.80;68.77;99983.50;3138932;28;19931;-70
2023/06/07 01:35:53;;;;;;;;;;;;;;;15.78;68.76;99983.59;3139851;28;20322;-70
2023/06/07 01:37:25;;;;;;;;;;;;;;;15.79;69.00;99987.06;3137689;28;20325;-70
2023/06/07 01:38:59;;;;;;;;;;;;;;;15.78;68.94;99991.47;3141358;28;20037;-71
2023/06/07 01:40:33;;;;;;;;;;;;;;;15.76;69.28;99979.38;3145808;28;19924;-72
2023/06/07 01:42:04;;;;;;;;;;;;;;;15.76;69.25;99979.38;3144458;28;19921;-72
2023/06/07 01:43:36;;;;;;;;;;;;;;;15.76;69.47;99982.84;3134321;28;19942;-72
2023/06/07 01:45:08;;;;;;;;;;;;;;;15.74;69.67;99978.66;3145929;28;20332;-72
2023/06/07 01:46:41;;;;;;;;;;;;;;;15.73;69.99;99979.56;3146005;28;20377;-72
2023/06/07 01:48:12;;;;;;;;;;;;;;;15.73;69.85;99982.19;3142496;28;19925;-72
2023/06/07 01:49:45;;;;;;;;;;;;;;;15.71;69.97;99981.47;3145030;28;20003;-71
2023/06/07 01:51:16;;;;;;;;;;;;;;;15.70;70.22;99977.97;3139486;28;19928;-71
2023/06/07 01:52:47;;;;;;;;;;;;;;;15.69;70.25;99981.56;3142077;28;19924;-71
2023/06/07 01:54:20;;;;;;;;;;;;;;;15.71;70.30;99981.47;3139655;28;20029;-71
2023/06/07 01:55:57;;;;;;;;;;;;;;;15.71;70.38;99976.22;3141852;28;19925;-71
2023/06/07 01:57:34;;;;;;;;;;;;;;;15.69;70.57;99974.53;3143580;28;20262;-71
2023/06/07 01:59:15;;;;;;;;;;;;;;;15.71;70.47;99978.84;3141560;28;20312;-71
2023/06/07 02:00:53;;;;;;;;;;;;;;;15.71;70.95;99978.84;3145828;28;19923;-70
2023/06/07 02:02:27;;;;;;;;;;;;;;;15.70;70.88;99975.34;3144149;28;19920;-70
2023/06/07 02:04:00;;;;;;;;;;;;;;;15.71;71.07;99982.31;3141699;28;19964;-70
2023/06/07 02:05:33;;;;;;;;;;;;;;;15.72;70.98;99981.38;3146078;28;20014;-72
2023/06/07 02:07:06;;;;;;;;;;;;;;;15.74;70.87;99974.25;3145614;28;19920;-70
2023/06/07 02:08:40;;;;;;;;;;;;;;;15.74;71.08;99971.63;3141281;28;20011;-70
2023/06/07 02:10:13;;;;;;;;;;;;;;;15.77;70.86;99978.47;3145674;28;19924;-70
2023/06/07 02:11:45;;;;;;;;;;;;;;;15.77;71.04;99976.66;3145971;28;19920;-71
2023/06/07 02:13:18;;;;;;;;;;;;;;;15.77;71.81;99988.97;3142317;28;19920;-70
2023/06/07 02:14:52;;;;;;;;;;;;;;;15.75;72.32;99993.47;3145450;28;19920;-70
2023/06/07 02:16:35;;;;;;;;;;;;;;;15.71;72.85;99991.97;3145483;28;20243;-72
2023/06/07 02:18:06;;;;;;;;;;;;;;;15.68;73.41;99982.50;3145651;28;19979;-71
2023/06/07 02:19:37;;;;;;;;;;;;;;;15.63;73.94;99985.38;3145775;28;20321;-72
2023/06/07 02:21:09;;;;;;;;;;;;;;;15.60;74.03;99988.19;3145639;28;19977;-71
2023/06/07 02:22:39;;;;;;;;;;;;;;;15.59;74.10;99983.06;3141496;28;19928;-69
2023/06/07 02:24:11;;;;;;;;;;;;;;;15.59;74.41;99985.69;3145452;28;19927;-70
2023/06/07 02:25:44;;;;;;;;;;;;;;;15.56;74.42;99984.09;3145082;28;19928;-70
2023/06/07 02:27:15;;;;;;;;;;;;;;;15.56;74.67;99980.59;3144880;28;19924;-70
2023/06/07 02:28:47;;;;;;;;;;;;;;;15.53;74.95;99979.03;3133518;28;19929;-71
2023/06/07 02:30:19;;;;;;;;;;;;;;;15.51;75.31;99980.91;3122723;28;19959;-70
2023/06/07 02:31:52;;;;;;;;;;;;;;;15.48;75.53;99981.09;3142867;28;19924;-70
2023/06/07 02:33:25;;;;;;;;;;;;;;;15.45;75.73;99981.28;3128579;28;20464;-70
2023/06/07 02:34:56;;;;;;;;;;;;;;;15.42;75.95;99979.69;3145583;28;19932;-71
2023/06/07 02:36:33;;;;;;;;;;;;;;;15.40;75.94;99978.09;3134944;28;19925;-71
2023/06/07 02:38:05;;;;;;;;;;;;;;;15.39;75.80;99972.03;3132125;28;20398;-72
2023/06/07 02:39:36;;;;;;;;;;;;;;;15.39;75.85;99981.69;3141864;28;20480;-72
2023/06/07 02:41:09;;;;;;;;;;;;;;;15.38;76.00;99983.47;3141388;28;20050;-71
2023/06/07 02:42:44;;;;;;;;;;;;;;;15.37;76.07;99988.78;3138798;28;19929;-71
2023/06/07 02:44:15;;;;;;;;;;;;;;;15.35;76.28;99986.28;3138391;28;19924;-71
2023/06/07 02:45:46;;;;;;;;;;;;;;;15.34;76.46;99981.13;3139064;28;19925;-72
2023/06/07 02:47:17;;;;;;;;;;;;;;;15.31;76.70;99976.06;3141628;28;19925;-70
2023/06/07 02:48:48;;;;;;;;;;;;;;;15.30;76.72;99987.50;3137406;28;20124;-70
2023/06/07 02:50:21;;;;;;;;;;;;;;;15.28;76.96;99987.56;3144941;28;20415;-70
2023/06/07 02:51:52;;;;;;;;;;;;;;;15.25;76.94;99987.78;3141087;28;19951;-70
2023/06/07 02:53:24;;;;;;;;;;;;;;;15.24;77.16;99978.22;3145559;28;19921;-70
2023/06/07 02:54:56;;;;;;;;;;;;;;;15.24;77.04;99986.94;3139001;28;19963;-70
2023/06/07 02:56:29;;;;;;;;;;;;;;;15.24;77.09;99989.56;3144984;28;19920;-71
2023/06/07 02:58:01;;;;;;;;;;;;;;;15.25;77.10;99991.22;3138555;28;20378;-70
2023/06/07 02:59:33;;;;;;;;;;;;;;;15.25;77.09;99983.34;3128903;28;20459;-70
2023/06/07 03:01:07;;;;;;;;;;;;;;;15.24;77.14;99988.72;3132942;28;20427;-70
2023/06/07 03:02:39;;;;;;;;;;;;;;;15.21;77.51;99981.03;3143865;28;20451;-70
2023/06/07 03:04:10;;;;;;;;;;;;;;;15.17;77.76;99985.63;3145467;28;19928;-70
2023/06/07 03:05:44;;;;;;;;;;;;;;;15.15;78.01;99982.25;3144704;28;19922;-70
2023/06/07 03:07:15;;;;;;;;;;;;;;;15.13;78.04;99986.75;3142537;28;19928;-71
2023/06/07 03:08:47;;;;;;;;;;;;;;;15.11;78.38;99990.38;3144833;28;20688;-69
2023/06/07 03:10:19;;;;;;;;;;;;;;;15.08;78.64;99980.91;3144867;28;20321;-70
2023/06/07 03:11:52;;;;;;;;;;;;;;;15.06;78.61;99977.56;3145328;28;19970;-70
2023/06/07 03:13:24;;;;;;;;;;;;;;;15.08;78.52;99982.72;3141980;28;19956;-70
2023/06/07 03:14:55;;;;;;;;;;;;;;;15.08;78.41;99980.91;3145082;28;19921;-70
2023/06/07 03:16:26;;;;;;;;;;;;;;;15.10;78.46;99976.44;3144986;28;19920;-70
2023/06/07 03:17:58;;;;;;;;;;;;;;;15.12;78.02;99976.34;3145051;28;19931;-70
2023/06/07 03:19:30;;;;;;;;;;;;;;;15.13;77.98;99975.41;3145283;28;20446;-70
2023/06/07 03:21:02;;;;;;;;;;;;;;;15.14;77.81;99977.09;3140871;28;19920;-70
2023/06/07 03:22:36;;;;;;;;;;;;;;;15.17;77.77;99982.13;3145267;28;19921;-70
2023/06/07 03:24:07;;;;;;;;;;;;;;;15.15;77.67;99984.03;3144991;28;19920;-70
2023/06/07 03:25:38;;;;;;;;;;;;;;;15.14;78.15;99977.09;3143403;28;20258;-70
2023/06/07 03:27:11;;;;;;;;;;;;;;;15.12;78.34;99978.97;3120394;28;19927;-70
2023/06/07 03:28:42;;;;;;;;;;;;;;;15.15;78.10;99986.66;3132001;28;19931;-70
2023/06/07 03:30:14;;;;;;;;;;;;;;;15.14;77.88;99983.16;3143420;28;19924;-70
2023/06/07 03:31:46;;;;;;;;;;;;;;;15.17;77.79;99983.00;3144201;28;19924;-71
2023/06/07 03:33:17;;;;;;;;;;;;;;;15.19;77.55;99975.88;3144813;28;19924;-71
2023/06/07 03:34:48;;;;;;;;;;;;;;;15.22;77.45;99980.94;3144377;28;20385;-71
2023/06/07 03:36:20;;;;;;;;;;;;;;;15.25;77.16;99977.28;3137706;28;19987;-71
2023/06/07 03:37:52;;;;;;;;;;;;;;;15.29;76.90;99978.75;3140483;28;19927;-70
2023/06/07 03:39:23;;;;;;;;;;;;;;;15.33;77.04;99974.19;3145308;28;19921;-71
2023/06/07 03:40:55;;;;;;;;;;;;;;;15.36;76.86;99979.25;3145478;28;19947;-70
2023/06/07 03:42:28;;;;;;;;;;;;;;;15.37;76.55;99973.03;3139728;28;20302;-71
2023/06/07 03:43:59;;;;;;;;;;;;;;;15.41;76.69;99979.78;3137190;28;19931;-71
2023/06/07 03:45:31;;;;;;;;;;;;;;;15.45;76.23;99978.66;3145072;28;19986;-71
2023/06/07 03:47:03;;;;;;;;;;;;;;;15.45;76.09;99976.88;3145187;28;19928;-71
2023/06/07 03:48:34;;;;;;;;;;;;;;;15.46;76.19;99973.31;3140584;28;20452;-71
2023/06/07 03:50:05;;;;;;;;;;;;;;;15.47;76.17;99977.63;3140175;28;20317;-71
2023/06/07 03:51:38;;;;;;;;;;;;;;;15.48;76.15;99975.84;3145114;28;19924;-71
2023/06/07 03:53:09;;;;;;;;;;;;;;;15.48;76.22;99981.09;3144878;28;19925;-71
2023/06/07 03:54:40;;;;;;;;;;;;;;;15.47;76.23;99984.69;3139390;28;19937;-70
2023/06/07 03:56:12;;;;;;;;;;;;;;;15.44;76.29;99980.44;3143767;28;19924;-72
2023/06/07 03:57:45;;;;;;;;;;;;;;;15.43;76.29;99983.16;3140360;28;19921;-76
2023/06/07 03:59:19;;;;;;;;;;;;;;;15.41;76.35;99982.41;3142392;28;19943;-72
2023/06/07 04:00:51;;;;;;;;;;;;;;;15.40;76.53;99984.19;3143832;28;19994;-72
2023/06/07 04:02:23;;;;;;;;;;;;;;;15.40;76.51;99983.34;3144641;28;19936;-72
2023/06/07 04:03:54;;;;;;;;;;;;;;;15.40;76.37;99988.59;3144815;28;19924;-73
2023/06/07 04:05:27;;;;;;;;;;;;;;;15.41;76.33;99982.41;3135051;28;19935;-71
2023/06/07 04:07:00;;;;;;;;;;;;;;;15.39;76.49;99979.88;3144941;28;19921;-71
2023/06/07 04:08:31;;;;;;;;;;;;;;;15.39;76.51;99976.44;3144716;28;20019;-72
2023/06/07 04:10:02;;;;;;;;;;;;;;;15.39;76.48;99986.94;3144321;28;19928;-71
2023/06/07 04:11:33;;;;;;;;;;;;;;;15.39;76.71;99984.31;3144213;28;19921;-71
2023/06/07 04:13:06;;;;;;;;;;;;;;;15.38;76.59;99974.72;3137910;28;20470;-70
2023/06/07 04:14:38;;;;;;;;;;;;;;;15.37;76.70;99980.91;3146642;28;20435;-70
2023/06/07 04:16:09;;;;;;;;;;;;;;;15.37;76.96;99975.66;3147090;28;19925;-71
2023/06/07 04:17:41;;;;;;;;;;;;;;;15.38;76.96;99985.22;3147117;28;19928;-71
2023/06/07 04:19:13;;;;;;;;;;;;;;;15.39;77.00;99982.50;3145694;28;19924;-71
2023/06/07 04:20:44;;;;;;;;;;;;;;;15.43;76.69;99980.53;3144818;28;19993;-70
2023/06/07 04:22:16;;;;;;;;;;;;;;;15.48;76.57;99981.09;3146916;28;19947;-68
2023/06/07 04:23:47;;;;;;;;;;;;;;;15.50;76.54;99975.75;3146941;28;20686;-67
2023/06/07 04:25:21;;;;;;;;;;;;;;;15.52;76.43;99974.72;3144718;28;19924;-68
2023/06/07 04:26:56;;;;;;;;;;;;;;;15.57;76.44;99979.69;3137777;28;20290;-65
2023/06/07 04:28:30;;;;;;;;;;;;;;;15.58;76.42;99981.34;3141268;28;19925;-66
2023/06/07 04:30:02;;;;;;;;;;;;;;;15.62;76.08;99981.06;3146100;28;19967;-64
2023/06/07 04:31:34;;;;;;;;;;;;;;;15.69;76.09;99981.56;3146253;28;19920;-66
2023/06/07 04:33:08;;;;;;;;;;;;;;;15.77;76.06;99981.91;3139461;28;20058;-65
2023/06/07 04:34:41;;;;;;;;;;;;;;;15.84;75.75;99990.25;3136653;28;19928;-66
2023/06/07 04:36:14;;;;;;;;;;;;;;;15.90;75.72;99987.22;3134516;28;19924;-67
2023/06/07 04:37:45;;;;;;;;;;;;;;;15.96;75.60;99986.81;3144359;28;20019;-67
2023/06/07 04:39:18;;;;;;;;;;;;;;;16.00;75.37;99984.84;3145602;28;20599;-69
2023/06/07 04:40:50;;;;;;;;;;;;;;;16.02;75.31;99991.69;3138061;28;19924;-73
2023/06/07 04:42:21;;;;;;;;;;;;;;;16.07;75.57;99984.34;3144126;28;20337;-69
2023/06/07 04:43:54;;;;;;;;;;;;;;;16.16;75.24;99990.78;3135256;28;19925;-71
2023/06/07 04:45:31;;;;;;;;;;;;;;;16.18;75.14;99974.91;3147339;28;19920;-67
2023/06/07 04:47:03;;;;;;;;;;;;;;;16.36;74.88;99986.88;3147028;28;20458;-68
2023/06/07 04:48:41;;;;;;;;;;;;;;;16.44;74.56;99992.44;3140392;28;20015;-70
2023/06/07 04:50:13;;;;;;;;;;;;;;;16.50;74.50;99999.06;3136738;28;19998;-70
2023/06/07 04:51:48;;;;;;;;;;;;;;;16.52;74.52;99999.81;3141435;28;20016;-71
2023/06/07 04:53:20;;;;;;;;;;;;;;;16.50;74.65;99994.66;3146649;28;19920;-66
2023/06/07 04:54:53;;;;;;;;;;;;;;;16.49;74.50;100000.03;3132278;28;19982;-67
2023/06/07 04:56:26;;;;;;;;;;;;;;;16.48;74.60;99999.19;3137368;28;20012;-66
2023/06/07 04:57:58;;;;;;;;;;;;;;;16.49;74.67;99995.59;3134277;28;19931;-71
2023/06/07 04:59:34;;;;;;;;;;;;;;;16.50;74.86;99997.28;3146525;28;19927;-70
2023/06/07 05:01:09;;;;;;;;;;;;;;;16.54;74.72;99997.94;3121836;28;19921;-69
2023/06/07 05:02:43;;;;;;;;;;;;;;;16.55;74.73;100000.44;3141321;28;19928;-70
2023/06/07 05:04:16;;;;;;;;;;;;;;;16.54;75.02;99996.16;3144813;28;19978;-69
2023/06/07 05:05:48;;;;;;;;;;;;;;;16.53;75.08;99997.09;3126581;28;20388;-70
2023/06/07 05:07:19;;;;;;;;;;;;;;;16.51;75.20;99998.97;3121294;28;19921;-69
2023/06/07 05:08:51;;;;;;;;;;;;;;;16.52;75.21;99994.56;3145018;28;19927;-70
2023/06/07 05:10:23;;;;;;;;;;;;;;;16.51;75.20;99992.88;3146217;28;20367;-69
2023/06/07 05:11:54;;;;;;;;;;;;;;;16.51;75.43;99998.97;3146271;28;19931;-71
2023/06/07 05:13:26;;;;;;;;;;;;;;;16.54;75.20;99998.78;3137809;28;19921;-71
2023/06/07 05:14:59;;;;;;;;;;;;;;;16.54;75.35;99997.94;3142668;28;20007;-69
2023/06/07 05:16:32;;;;;;;;;;;;;;;16.54;75.53;99996.16;3146389;28;19921;-69
2023/06/07 05:18:04;;;;;;;;;;;;;;;16.57;75.58;99997.72;3146145;28;20394;-70
2023/06/07 05:19:34;;;;;;;;;;;;;;;16.59;75.78;100001.94;3143782;28;19929;-71
2023/06/07 05:21:06;;;;;;;;;;;;;;;16.65;75.50;99999.84;3140835;28;20378;-71
2023/06/07 05:22:38;;;;;;;;;;;;;;;16.70;75.60;99997.75;3138986;28;20401;-71
2023/06/07 05:24:10;;;;;;;;;;;;;;;16.76;75.07;99998.19;3146172;28;19924;-78
2023/06/07 05:25:42;;;;;;;;;;;;;;;16.80;74.99;99999.69;3143356;28;20463;-68
2023/06/07 05:27:14;;;;;;;;;;;;;;;16.76;74.75;99990.31;3134821;28;19924;-73
2023/06/07 05:28:46;;;;;;;;;;;;;;;16.88;74.79;99996.53;3126658;28;19929;-71
2023/06/07 05:30:19;;;;;;;;;;;;;;;16.94;74.75;99995.25;3144152;28;19924;-69
2023/06/07 05:31:51;;;;;;;;;;;;;;;16.99;74.66;99994.00;3135214;28;19921;-69
2023/06/07 05:33:23;;;;;;;;;;;;;;;17.01;74.55;99993.91;3141928;28;19929;-65
2023/06/07 05:35:02;;;;;;;;;;;;;;;17.00;74.54;99990.41;3133512;28;20463;-66
2023/06/07 05:36:35;;;;;;;;;;;;;;;16.98;74.65;99986.22;3138233;28;20015;-65
2023/06/07 05:38:27;;;;;;;;;;;;;;;16.98;74.82;99988.88;3146056;28;19928;-64
2023/06/07 05:40:04;;;;;;;;;;;;;;;17.03;74.72;99998.09;3145744;28;19927;-67
2023/06/07 05:41:38;;;;;;;;;;;;;;;17.08;74.47;99994.31;3145688;28;19921;-65
2023/06/07 05:43:10;;;;;;;;;;;;;;;17.06;74.41;99995.25;3134860;28;19986;-69
2023/06/07 05:44:42;;;;;;;;;;;;;;;17.07;74.27;99990.84;3143602;28;19920;-65
2023/06/07 05:46:16;;;;;;;;;;;;;;;17.11;74.30;99988.84;3145858;28;20312;-65
2023/06/07 05:47:48;;;;;;;;;;;;;;;17.15;74.28;99987.69;3141940;28;20741;-64
2023/06/07 05:49:19;;;;;;;;;;;;;;;17.22;74.19;99997.69;3137720;28;20003;-67
2023/06/07 05:50:52;;;;;;;;;;;;;;;17.31;74.12;99987.47;3145387;28;20270;-64
2023/06/07 05:52:23;;;;;;;;;;;;;;;17.40;73.79;99987.66;3146079;28;19934;-63
2023/06/07 05:53:55;;;;;;;;;;;;;;;17.49;73.72;99994.91;3145497;28;19921;-66
2023/06/07 05:55:34;;;;;;;;;;;;;;;17.58;73.31;99992.56;3139106;28;19951;-64
2023/06/07 05:57:07;;;;;;;;;;;;;;;17.67;73.17;99991.91;3139518;28;19982;-67
2023/06/07 05:58:50;;;;;;;;;;;;;;;17.76;72.68;99993.88;3138791;28;19947;-66
2023/06/07 06:00:23;;;;;;;;;;;;;;;17.81;72.54;100002.34;3145256;28;19920;-66
2023/06/07 06:02:00;;;;;;;;;;;;;;;17.83;72.39;100005.69;3140445;28;19983;-66
2023/06/07 06:03:35;;;;;;;;;;;;;;;17.87;72.20;99999.25;3136883;28;20306;-69
2023/06/07 06:05:11;;;;;;;;;;;;;;;17.92;72.25;99999.78;3140467;28;20427;-68
2023/06/07 06:06:43;;;;;;;;;;;;;;;18.00;72.14;99995.72;3139937;28;19928;-66
2023/06/07 06:08:15;;;;;;;;;;;;;;;18.08;71.66;99999.47;3140234;28;19924;-67
2023/06/07 06:09:47;;;;;;;;;;;;;;;18.16;71.20;100004.16;3139978;28;19951;-68
2023/06/07 06:11:19;;;;;;;;;;;;;;;18.13;70.77;100007.91;3139832;28;19925;-66
2023/06/07 06:12:50;;;;;;;;;;;;;;;18.16;70.80;100004.16;3132242;28;20032;-65
2023/06/07 06:14:24;;;;;;;;;;;;;;;18.21;70.68;100001.22;3134495;28;19956;-66
2023/06/07 06:15:56;;;;;;;;;;;;;;;18.26;70.57;100001.72;3130047;28;20012;-69
2023/06/07 06:17:29;;;;;;;;;;;;;;;18.30;70.37;100004.00;3127611;28;19930;-71
2023/06/07 06:19:01;;;;;;;;;;;;;;;18.33;70.11;99998.50;3128859;28;19990;-65
2023/06/07 06:20:36;;;;;;;;;;;;;;;18.31;70.12;99996.94;3131635;28;20002;-66
2023/06/07 06:22:07;;;;;;;;;;;;;;;18.28;69.78;99994.53;3140413;28;19924;-67
2023/06/07 06:23:39;;;;;;;;;;;;;;;18.27;69.78;99998.97;3140065;28;19924;-67
2023/06/07 06:25:13;;;;;;;;;;;;;;;18.26;69.65;99991.19;3138224;28;19924;-68
2023/06/07 06:26:45;;;;;;;;;;;;;;;18.26;69.57;99997.28;3139326;28;19924;-71
2023/06/07 06:28:17;;;;;;;;;;;;;;;18.30;69.62;99995.25;3131790;28;19924;-68
2023/06/07 06:29:49;;;;;;;;;;;;;;;18.36;69.37;99995.63;3140191;28;19930;-70
2023/06/07 06:31:21;;;;;;;;;;;;;;;18.37;69.21;99989.44;3129810;28;19984;-68
2023/06/07 06:32:54;;;;;;;;;;;;;;;18.42;69.07;99995.16;3129546;28;20523;-68
2023/06/07 06:34:26;;;;;;;;;;;;;;;18.52;68.92;99992.72;3139259;28;20578;-68
2023/06/07 06:35:59;;;;;;;;;;;;;;;18.63;68.64;99994.53;3131965;28;19934;-69
2023/06/07 06:37:31;;;;;;;;;;;;;;;18.73;68.40;99997.31;3137142;28;19943;-71
2023/06/07 06:39:04;;;;;;;;;;;;;;;18.78;67.84;99993.41;3139232;28;20428;-69
2023/06/07 06:40:38;;;;;;;;;;;;;;;18.81;67.78;99997.59;3129703;28;19931;-69
2023/06/07 06:42:10;;;;;;;;;;;;;;;18.83;67.47;100000.97;3137695;28;19929;-65
2023/06/07 06:43:42;;;;;;;;;;;;;;;18.91;67.19;99995.09;3128377;28;19982;-64
2023/06/07 06:45:13;;;;;;;;;;;;;;;18.95;67.08;99989.47;3128665;28;19967;-68
2023/06/07 06:46:45;;;;;;;;;;;;;;;18.96;66.63;99992.94;3139967;28;19924;-66
2023/06/07 06:48:18;;;;;;;;;;;;;;;18.92;66.67;99988.88;3130293;28;20056;-68
2023/06/07 06:49:51;;;;;;;;;;;;;;;18.93;66.57;99995.81;3123133;28;20477;-65
2023/06/07 06:51:23;;;;;;;;;;;;;;;18.95;66.62;99988.63;3126406;28;20012;-66
2023/06/07 06:52:55;;;;;;;;;;;;;;;18.98;66.40;99996.31;3131294;28;19990;-66
2023/06/07 06:54:27;;;;;;;;;;;;;;;18.99;66.37;99984.78;3138221;28;19943;-67
2023/06/07 06:55:59;;;;;;;;;;;;;;;19.04;66.16;99995.84;3126745;28;19931;-66
2023/06/07 06:57:30;;;;;;;;;;;;;;;19.01;66.19;99990.78;3128699;28;19924;-67
2023/06/07 06:59:02;;;;;;;;;;;;;;;18.99;66.07;99979.50;3131159;28;19960;-68
2023/06/07 07:00:35;;;;;;;;;;;;;;;19.01;66.19;99985.50;3135291;28;20419;-68
2023/06/07 07:02:07;;;;;;;;;;;;;;;19.11;65.96;99989.13;3133099;28;19924;-67
2023/06/07 07:03:40;;;;;;;;;;;;;;;19.16;65.67;99983.47;3133814;28;20123;-68
2023/06/07 07:05:13;;;;;;;;;;;;;;;19.19;65.82;99985.88;3138367;28;20477;-68
2023/06/07 07:06:45;;;;;;;;;;;;;;;19.26;65.65;99987.09;3139769;28;20023;-69
2023/06/07 07:08:17;;;;;;;;;;;;;;;19.38;65.67;99993.22;3132228;28;20119;-68
2023/06/07 07:09:49;;;;;;;;;;;;;;;19.52;65.20;99977.09;3140177;28;19929;-68
2023/06/07 07:11:21;;;;;;;;;;;;;;;19.65;64.99;99982.28;3139529;28;20027;-68
2023/06/07 07:12:53;;;;;;;;;;;;;;;19.78;64.52;99980.31;3134295;28;19925;-69
2023/06/07 07:14:24;;;;;;;;;;;;;;;19.88;64.10;99988.38;3133129;28;20333;-68
2023/06/07 07:15:56;;;;;;;;;;;;;;;20.00;63.97;99987.38;3139960;28;20483;-70
2023/06/07 07:17:28;;;;;;;;;;;;;;;20.08;63.30;99986.72;3121224;28;19924;-68
2023/06/07 07:19:01;;;;;;;;;;;;;;;20.09;62.99;99981.31;3137841;28;20173;-65
2023/06/07 07:20:33;;;;;;;;;;;;;;;20.09;63.02;99981.31;3139788;28;19924;-64
2023/06/07 07:22:05;;;;;;;;;;;;;;;20.03;63.05;99984.47;3139373;28;19924;-66
2023/06/07 07:23:37;;;;;;;;;;;;;;;20.00;63.16;99972.34;3139969;28;19928;-66
2023/06/07 07:25:09;;;;;;;;;;;;;;;19.98;62.98;99984.00;3138658;28;19977;-67
2023/06/07 07:26:41;;;;;;;;;;;;;;;19.96;63.12;99978.00;3139652;28;19924;-66
2023/06/07 07:28:12;;;;;;;;;;;;;;;19.97;63.11;99972.59;3131550;28;19924;-69
2023/06/07 07:29:44;;;;;;;;;;;;;;;20.00;63.06;99979.44;3140138;28;20019;-70
2023/06/07 07:31:16;;;;;;;;;;;;;;;20.07;63.06;99975.31;3129721;28;19932;-69
2023/06/07 07:32:48;;;;;;;;;;;;;;;20.14;62.76;99980.94;3130018;28;19925;-71
2023/06/07 07:34:21;;;;;;;;;;;;;;;20.13;62.52;99977.44;3128755;28;20420;-69
2023/06/07 07:35:53;;;;;;;;;;;;;;;20.12;62.30;99974.94;3130387;28;19998;-70
2023/06/07 07:37:28;;;;;;;;;;;;;;;20.11;62.45;99975.91;3139627;28;19928;-68
2023/06/07 07:38:59;;;;;;;;;;;;;;;20.16;62.39;99977.19;3139957;28;19936;-67
2023/06/07 07:40:31;;;;;;;;;;;;;;;20.20;62.37;99975.13;3136775;28;19930;-68
2023/06/07 07:42:05;;;;;;;;;;;;;;;20.29;62.10;99973.53;3138300;28;19974;-67
2023/06/07 07:43:36;;;;;;;;;;;;;;;20.36;61.90;99977.38;3128379;28;20475;-67
2023/06/07 07:45:11;;;;;;;;;;;;;;;20.37;61.17;99973.75;3134398;28;19924;-70
2023/06/07 07:46:43;;;;;;;;;;;;;;;20.33;60.87;99978.47;3139708;28;19924;-68
2023/06/07 07:48:15;;;;;;;;;;;;;;;20.31;60.90;99975.09;3130725;28;19924;-67
2023/06/07 07:49:48;;;;;;;;;;;;;;;20.34;60.81;99971.34;3117225;28;20019;-68
2023/06/07 07:51:20;;;;;;;;;;;;;;;20.41;60.91;99977.84;3131083;28;20014;-68
2023/06/07 07:52:53;;;;;;;;;;;;;;;20.49;60.51;99969.25;3141366;28;19960;-66
2023/06/07 07:54:25;;;;;;;;;;;;;;;20.57;60.52;99972.13;3138574;28;20015;-67
2023/06/07 07:55:57;;;;;;;;;;;;;;;20.64;60.25;99976.75;3140862;28;20655;-68
2023/06/07 07:57:29;;;;;;;;;;;;;;;20.63;59.97;99966.31;3139723;28;19924;-68
2023/06/07 07:59:01;;;;;;;;;;;;;;;20.73;59.88;99974.28;3133173;28;19951;-66
2023/06/07 08:00:34;;;;;;;;;;;;;;;20.83;59.72;99980.50;3138326;28;19924;-68